createdAt,value
2019-06-10T00:00:03.624Z,972.99
2019-06-10T00:01:06.572Z,972.95
2019-06-10T00:02:04.204Z,973.02
2019-06-10T00:03:04.471Z,973.02
2019-06-10T00:04:06.375Z,973.05
2019-06-10T00:05:05.458Z,973.07
2019-06-10T00:06:04.104Z,972.99
2019-06-10T00:07:04.195Z,972.88
2019-06-10T00:08:04.253Z,972.89
2019-06-10T00:09:06.214Z,972.84
2019-06-10T00:10:04.481Z,972.85
2019-06-10T00:11:04.979Z,972.90
2019-06-10T00:12:04.741Z,972.93
2019-06-10T00:13:04.042Z,972.95
2019-06-10T00:14:04.571Z,972.96
2019-06-10T00:15:04.535Z,972.92
2019-06-10T00:16:04.694Z,972.93
2019-06-10T00:17:04.650Z,972.91
2019-06-10T00:18:26.245Z,972.89
2019-06-10T00:19:06.484Z,972.92
2019-06-10T00:20:05.153Z,972.90
2019-06-10T00:21:05.123Z,972.87
2019-06-10T00:22:04.092Z,972.81
2019-06-10T00:23:05.202Z,972.73
2019-06-10T00:24:05.220Z,972.71
2019-06-10T00:25:05.329Z,972.71
2019-06-10T00:26:04.897Z,972.73
2019-06-10T00:27:05.501Z,972.77
2019-06-10T00:28:05.323Z,972.79
2019-06-10T00:29:05.549Z,972.80
2019-06-10T00:30:05.758Z,972.78
2019-06-10T00:31:05.036Z,972.81
2019-06-10T00:32:05.394Z,972.81
2019-06-10T00:33:03.555Z,972.89
2019-06-10T00:34:04.644Z,972.92
2019-06-10T00:35:04.632Z,972.97
2019-06-10T00:36:05.832Z,973.01
2019-06-10T00:37:06.311Z,973.05
2019-06-10T00:38:06.909Z,973.08
2019-06-10T00:39:05.236Z,973.09
2019-06-10T00:40:05.498Z,973.10
2019-06-10T00:41:05.649Z,973.11
2019-06-10T00:42:06.349Z,973.18
2019-06-10T00:43:05.121Z,973.28
2019-06-10T00:44:04.947Z,973.29
2019-06-10T00:45:05.627Z,973.33
2019-06-10T00:46:05.770Z,973.36
2019-06-10T00:47:05.339Z,973.41
2019-06-10T00:48:12.381Z,973.45
2019-06-10T00:49:05.645Z,973.47
2019-06-10T00:50:03.964Z,973.52
2019-06-10T00:51:04.209Z,973.52
2019-06-10T00:52:04.286Z,973.53
2019-06-10T00:53:04.497Z,973.51
2019-06-10T00:54:04.958Z,973.56
2019-06-10T00:55:04.475Z,973.53
2019-06-10T00:56:05.131Z,973.56
2019-06-10T00:57:04.009Z,973.58
2019-06-10T00:58:04.052Z,973.58
2019-06-10T00:59:04.133Z,973.54
2019-06-10T01:00:13.567Z,973.52
2019-06-10T01:01:04.152Z,973.49
2019-06-10T01:02:03.345Z,973.46
2019-06-10T01:03:03.863Z,973.43
2019-06-10T01:04:03.782Z,973.39
2019-06-10T01:05:03.096Z,973.32
2019-06-10T01:06:03.449Z,973.27
2019-06-10T01:07:02.664Z,973.24
2019-06-10T01:08:02.996Z,973.20
2019-06-10T01:09:02.672Z,973.20
2019-06-10T01:10:02.879Z,973.22
2019-06-10T01:11:08.157Z,973.21
2019-06-10T01:12:02.858Z,973.21
2019-06-10T01:13:03.436Z,973.21
2019-06-10T01:14:03.095Z,973.16
2019-06-10T01:15:03.238Z,973.27
2019-06-10T01:16:03.408Z,973.34
2019-06-10T01:17:03.393Z,973.42
2019-06-10T01:18:03.476Z,973.49
2019-06-10T01:19:03.764Z,973.52
2019-06-10T01:20:03.725Z,973.54
2019-06-10T01:21:03.795Z,973.57
2019-06-10T01:22:03.854Z,973.59
2019-06-10T01:23:02.536Z,973.60
2019-06-10T01:24:02.532Z,973.61
2019-06-10T01:25:02.522Z,973.61
2019-06-10T01:26:02.510Z,973.57
2019-06-10T01:27:02.507Z,973.54
2019-06-10T01:28:02.500Z,973.46
2019-06-10T01:29:02.490Z,973.36
2019-06-10T01:30:09.636Z,973.23
2019-06-10T01:31:02.474Z,973.17
2019-06-10T01:32:02.466Z,973.08
2019-06-10T01:33:02.459Z,973.08
2019-06-10T01:34:02.451Z,973.06
2019-06-10T01:35:02.448Z,973.06
2019-06-10T01:36:02.457Z,973.09
2019-06-10T01:37:02.427Z,973.08
2019-06-10T01:38:02.419Z,973.11
2019-06-10T01:39:02.412Z,973.19
2019-06-10T01:40:02.406Z,973.23
2019-06-10T01:41:02.397Z,973.24
2019-06-10T01:42:02.388Z,973.21
2019-06-10T01:43:02.381Z,973.22
2019-06-10T01:44:02.371Z,973.15
2019-06-10T01:45:02.367Z,973.12
2019-06-10T01:46:02.356Z,973.12
2019-06-10T01:47:02.350Z,973.11
2019-06-10T01:48:02.342Z,973.16
2019-06-10T01:49:02.335Z,973.13
2019-06-10T01:50:02.327Z,973.15
2019-06-10T01:51:02.318Z,973.06
2019-06-10T01:52:02.312Z,972.88
2019-06-10T01:53:02.307Z,972.73
2019-06-10T01:54:02.296Z,972.62
2019-06-10T01:55:02.289Z,972.60
2019-06-10T01:56:02.278Z,972.68
2019-06-10T01:57:02.273Z,972.77
2019-06-10T01:58:02.263Z,972.81
2019-06-10T01:59:02.255Z,972.82
2019-06-10T02:00:09.027Z,972.81
2019-06-10T02:01:02.243Z,972.71
2019-06-10T02:02:02.233Z,972.69
2019-06-10T02:03:03.686Z,972.63
2019-06-10T02:04:02.219Z,972.61
2019-06-10T02:05:02.222Z,972.64
2019-06-10T02:06:02.205Z,972.62
2019-06-10T02:07:02.202Z,972.60
2019-06-10T02:08:02.190Z,972.64
2019-06-10T02:09:02.181Z,972.64
2019-06-10T02:10:02.169Z,972.65
2019-06-10T02:11:02.165Z,972.64
2019-06-10T02:12:02.408Z,972.64
2019-06-10T02:13:02.148Z,972.68
2019-06-10T02:14:02.143Z,972.62
2019-06-10T02:15:02.135Z,972.65
2019-06-10T02:16:02.126Z,972.65
2019-06-10T02:17:02.137Z,972.63
2019-06-10T02:18:02.108Z,972.66
2019-06-10T02:19:04.176Z,972.70
2019-06-10T02:20:02.098Z,972.68
2019-06-10T02:21:02.092Z,972.64
2019-06-10T02:22:02.082Z,972.64
2019-06-10T02:23:02.097Z,972.61
2019-06-10T02:24:02.061Z,972.60
2019-06-10T02:25:02.057Z,972.57
2019-06-10T02:26:02.169Z,972.55
2019-06-10T02:27:02.039Z,972.56
2019-06-10T02:28:02.033Z,972.55
2019-06-10T02:29:02.023Z,972.59
2019-06-10T02:30:13.529Z,972.59
2019-06-10T02:31:03.644Z,972.65
2019-06-10T02:32:04.876Z,972.66
2019-06-10T02:33:02.661Z,972.72
2019-06-10T02:34:02.762Z,972.75
2019-06-10T02:35:10.515Z,972.78
2019-06-10T02:36:03.954Z,972.81
2019-06-10T02:37:04.637Z,972.91
2019-06-10T02:38:03.477Z,972.92
2019-06-10T02:39:04.556Z,972.95
2019-06-10T02:40:04.567Z,972.95
2019-06-10T02:41:04.078Z,972.98
2019-06-10T02:42:04.537Z,972.96
2019-06-10T02:43:03.506Z,973.00
2019-06-10T02:44:04.389Z,973.00
2019-06-10T02:45:03.627Z,973.00
2019-06-10T02:46:04.220Z,972.98
2019-06-10T02:47:03.367Z,972.95
2019-06-10T02:48:04.184Z,972.95
2019-06-10T02:49:20.578Z,972.95
2019-06-10T02:50:07.745Z,972.93
2019-06-10T02:51:03.788Z,972.96
2019-06-10T02:52:03.379Z,973.02
2019-06-10T02:53:04.010Z,973.05
2019-06-10T02:54:04.716Z,973.09
2019-06-10T02:55:04.240Z,973.13
2019-06-10T02:56:04.179Z,973.13
2019-06-10T02:57:04.456Z,973.12
2019-06-10T02:58:03.875Z,973.11
2019-06-10T02:59:03.337Z,973.08
2019-06-10T03:00:06.479Z,973.08
2019-06-10T03:01:04.217Z,972.99
2019-06-10T03:02:03.025Z,972.96
2019-06-10T03:03:03.888Z,972.92
2019-06-10T03:04:04.389Z,972.89
2019-06-10T03:05:04.616Z,972.82
2019-06-10T03:06:07.613Z,972.85
2019-06-10T03:07:03.409Z,972.81
2019-06-10T03:08:03.987Z,972.81
2019-06-10T03:09:03.739Z,972.79
2019-06-10T03:10:04.771Z,972.79
2019-06-10T03:11:03.856Z,972.76
2019-06-10T03:12:04.630Z,972.77
2019-06-10T03:13:02.491Z,972.72
2019-06-10T03:14:02.596Z,972.73
2019-06-10T03:15:02.219Z,972.58
2019-06-10T03:16:02.826Z,972.55
2019-06-10T03:17:03.191Z,972.47
2019-06-10T03:18:02.392Z,972.37
2019-06-10T03:19:02.904Z,972.31
2019-06-10T03:20:02.315Z,972.23
2019-06-10T03:21:02.614Z,972.17
2019-06-10T03:22:02.740Z,972.10
2019-06-10T03:23:02.984Z,972.08
2019-06-10T03:24:02.680Z,972.08
2019-06-10T03:25:02.929Z,972.13
2019-06-10T03:26:04.043Z,972.17
2019-06-10T03:27:02.644Z,972.18
2019-06-10T03:28:03.068Z,972.19
2019-06-10T03:29:02.755Z,972.21
2019-06-10T03:30:04.800Z,972.16
2019-06-10T03:31:05.580Z,972.15
2019-06-10T03:32:05.070Z,972.08
2019-06-10T03:33:04.886Z,972.01
2019-06-10T03:34:04.931Z,971.89
2019-06-10T03:35:05.359Z,971.86
2019-06-10T03:36:03.354Z,971.82
2019-06-10T03:37:02.454Z,971.83
2019-06-10T03:38:03.053Z,971.78
2019-06-10T03:39:02.567Z,971.83
2019-06-10T03:40:02.476Z,971.81
2019-06-10T03:41:03.258Z,971.84
2019-06-10T03:42:02.267Z,971.84
2019-06-10T03:43:02.609Z,971.86
2019-06-10T03:44:02.550Z,971.87
2019-06-10T03:45:03.349Z,971.88
2019-06-10T03:46:03.138Z,971.89
2019-06-10T03:47:02.821Z,971.93
2019-06-10T03:48:03.612Z,971.90
2019-06-10T03:49:03.114Z,971.85
2019-06-10T03:50:03.279Z,971.85
2019-06-10T03:51:03.360Z,971.79
2019-06-10T03:52:02.435Z,971.84
2019-06-10T03:53:04.296Z,971.80
2019-06-10T03:54:02.507Z,971.85
2019-06-10T03:55:03.138Z,971.81
2019-06-10T03:56:02.257Z,971.79
2019-06-10T03:57:02.785Z,971.79
2019-06-10T03:58:02.221Z,971.86
2019-06-10T03:59:02.822Z,971.83
2019-06-10T04:00:03.518Z,971.85
2019-06-10T04:01:03.167Z,971.84
2019-06-10T04:02:02.372Z,971.85
2019-06-10T04:03:02.744Z,971.84
2019-06-10T04:04:02.339Z,971.86
2019-06-10T04:05:02.768Z,971.87
2019-06-10T04:06:02.442Z,971.90
2019-06-10T04:07:03.767Z,971.89
2019-06-10T04:08:02.152Z,971.87
2019-06-10T04:09:02.871Z,971.85
2019-06-10T04:10:02.248Z,971.89
2019-06-10T04:11:02.926Z,971.89
2019-06-10T04:12:02.048Z,971.92
2019-06-10T04:13:02.619Z,971.98
2019-06-10T04:14:02.373Z,971.97
2019-06-10T04:15:03.108Z,972.01
2019-06-10T04:16:02.339Z,972.03
2019-06-10T04:17:02.688Z,972.04
2019-06-10T04:18:03.669Z,972.02
2019-06-10T04:19:02.575Z,972.02
2019-06-10T04:20:09.324Z,972.04
2019-06-10T04:21:02.281Z,972.07
2019-06-10T04:22:02.595Z,972.04
2019-06-10T04:23:02.783Z,972.03
2019-06-10T04:24:02.290Z,972.02
2019-06-10T04:25:02.973Z,972.07
2019-06-10T04:26:02.246Z,972.03
2019-06-10T04:27:02.789Z,972.07
2019-06-10T04:28:03.207Z,972.10
2019-06-10T04:29:02.486Z,972.14
2019-06-10T04:30:03.296Z,972.23
2019-06-10T04:31:02.544Z,972.25
2019-06-10T04:32:03.013Z,972.34
2019-06-10T04:33:02.282Z,972.45
2019-06-10T04:34:03.136Z,972.51
2019-06-10T04:35:02.333Z,972.55
2019-06-10T04:36:02.856Z,972.61
2019-06-10T04:37:03.126Z,972.63
2019-06-10T04:38:02.497Z,972.69
2019-06-10T04:39:03.271Z,972.73
2019-06-10T04:40:02.863Z,972.70
2019-06-10T04:41:03.072Z,972.68
2019-06-10T04:42:02.465Z,972.62
2019-06-10T04:43:02.930Z,972.56
2019-06-10T04:44:02.708Z,972.58
2019-06-10T04:45:03.195Z,972.59
2019-06-10T04:46:02.469Z,972.58
2019-06-10T04:47:02.695Z,972.56
2019-06-10T04:48:03.050Z,972.53
2019-06-10T04:49:02.713Z,972.49
2019-06-10T04:50:03.156Z,972.53
2019-06-10T04:51:02.848Z,972.49
2019-06-10T04:52:03.088Z,972.51
2019-06-10T04:53:02.304Z,972.46
2019-06-10T04:54:03.086Z,972.40
2019-06-10T04:55:02.595Z,972.28
2019-06-10T04:56:03.026Z,972.21
2019-06-10T04:57:02.260Z,972.19
2019-06-10T04:58:02.546Z,972.15
2019-06-10T04:59:02.976Z,972.12
2019-06-10T05:00:04.146Z,972.13
2019-06-10T05:01:03.041Z,972.08
2019-06-10T05:02:02.474Z,972.08
2019-06-10T05:03:02.867Z,972.09
2019-06-10T05:04:02.974Z,972.09
2019-06-10T05:05:02.945Z,972.09
2019-06-10T05:06:03.016Z,972.04
2019-06-10T05:07:02.181Z,972.09
2019-06-10T05:08:02.677Z,972.09
2019-06-10T05:09:00.789Z,972.13
2019-06-10T05:10:03.066Z,972.09
2019-06-10T05:11:03.328Z,972.04
2019-06-10T05:12:02.814Z,972.07
2019-06-10T05:13:02.977Z,972.03
2019-06-10T05:14:02.800Z,972.08
2019-06-10T05:15:03.263Z,972.16
2019-06-10T05:16:03.326Z,972.19
2019-06-10T05:17:02.225Z,972.21
2019-06-10T05:18:03.172Z,972.25
2019-06-10T05:19:00.699Z,972.23
2019-06-10T05:20:02.548Z,972.23
2019-06-10T05:21:02.925Z,972.23
2019-06-10T05:22:02.966Z,972.22
2019-06-10T05:23:02.265Z,972.22
2019-06-10T05:24:02.779Z,972.27
2019-06-10T05:25:02.535Z,972.26
2019-06-10T05:26:02.832Z,972.28
2019-06-10T05:27:02.100Z,972.36
2019-06-10T05:28:02.785Z,972.42
2019-06-10T05:29:02.885Z,972.52
2019-06-10T05:30:02.305Z,972.63
2019-06-10T05:31:02.795Z,972.77
2019-06-10T05:32:02.519Z,972.88
2019-06-10T05:33:02.856Z,972.93
2019-06-10T05:34:02.360Z,972.94
2019-06-10T05:35:03.297Z,972.95
2019-06-10T05:36:02.464Z,972.92
2019-06-10T05:37:02.682Z,972.96
2019-06-10T05:38:02.472Z,972.96
2019-06-10T05:39:02.676Z,973.04
2019-06-10T05:40:02.226Z,973.02
2019-06-10T05:41:02.770Z,973.09
2019-06-10T05:42:03.152Z,973.08
2019-06-10T05:43:02.443Z,973.12
2019-06-10T05:44:02.553Z,973.14
2019-06-10T05:45:02.970Z,973.13
2019-06-10T05:46:02.953Z,973.16
2019-06-10T05:47:03.407Z,973.12
2019-06-10T05:48:02.852Z,973.12
2019-06-10T05:49:02.920Z,973.10
2019-06-10T05:50:03.218Z,973.04
2019-06-10T05:51:06.175Z,973.03
2019-06-10T05:52:01.999Z,973.04
2019-06-10T05:53:02.416Z,973.05
2019-06-10T05:54:02.152Z,973.07
2019-06-10T05:55:02.734Z,973.13
2019-06-10T05:56:02.227Z,973.11
2019-06-10T05:57:02.542Z,973.13
2019-06-10T05:58:02.649Z,973.13
2019-06-10T05:59:03.810Z,973.10
2019-06-10T06:00:04.155Z,973.10
2019-06-10T06:01:02.507Z,973.09
2019-06-10T06:02:02.287Z,973.06
2019-06-10T06:03:02.626Z,973.02
2019-06-10T06:04:03.067Z,972.98
2019-06-10T06:05:02.620Z,972.96
2019-06-10T06:06:02.904Z,972.92
2019-06-10T06:07:02.379Z,972.89
2019-06-10T06:08:05.680Z,972.92
2019-06-10T06:09:02.219Z,972.92
2019-06-10T06:10:02.485Z,972.94
2019-06-10T06:11:00.926Z,972.92
2019-06-10T06:12:02.439Z,972.89
2019-06-10T06:13:00.317Z,972.85
2019-06-10T06:14:02.542Z,972.85
2019-06-10T06:15:02.374Z,972.85
2019-06-10T06:16:03.015Z,972.84
2019-06-10T06:17:02.283Z,972.83
2019-06-10T06:18:07.235Z,972.88
2019-06-10T06:19:00.256Z,972.87
2019-06-10T06:20:02.586Z,972.89
2019-06-10T06:21:17.226Z,972.93
2019-06-10T06:22:02.227Z,972.91
2019-06-10T06:23:02.631Z,972.97
2019-06-10T06:24:03.883Z,973.00
2019-06-10T06:25:03.346Z,973.02
2019-06-10T06:26:00.205Z,972.99
2019-06-10T06:27:02.364Z,972.99
2019-06-10T06:28:00.192Z,973.00
2019-06-10T06:29:02.218Z,973.00
2019-06-10T06:30:02.820Z,973.02
2019-06-10T06:31:00.171Z,973.00
2019-06-10T06:32:02.553Z,973.00
2019-06-10T06:33:02.748Z,973.01
2019-06-10T06:34:02.856Z,973.00
2019-06-10T06:35:02.163Z,973.03
2019-06-10T06:36:03.150Z,973.03
2019-06-10T06:37:02.171Z,972.99
2019-06-10T06:38:02.468Z,972.99
2019-06-10T06:39:02.186Z,973.00
2019-06-10T06:40:02.630Z,972.94
2019-06-10T06:41:00.104Z,972.88
2019-06-10T06:42:02.193Z,972.88
2019-06-10T06:43:00.090Z,972.85
2019-06-10T06:44:02.157Z,972.83
2019-06-10T06:45:00.079Z,972.82
2019-06-10T06:46:02.494Z,972.78
2019-06-10T06:47:02.521Z,972.78
2019-06-10T06:48:00.056Z,972.81
2019-06-10T06:49:02.104Z,972.79
2019-06-10T06:50:02.546Z,972.83
2019-06-10T06:51:04.724Z,972.81
2019-06-10T06:52:02.795Z,972.81
2019-06-10T06:53:19.742Z,972.84
2019-06-10T06:54:00.022Z,972.83
2019-06-10T06:55:02.334Z,972.84
2019-06-10T06:56:00.009Z,972.83
2019-06-10T06:57:03.260Z,972.91
2019-06-10T06:57:59.993Z,972.97
2019-06-10T06:59:02.381Z,973.00
2019-06-10T06:59:59.980Z,973.03
2019-06-10T07:01:07.376Z,973.07
2019-06-10T07:01:59.968Z,973.02
2019-06-10T07:02:59.960Z,972.98
2019-06-10T07:04:02.450Z,973.03
2019-06-10T07:04:59.954Z,973.01
2019-06-10T07:06:02.459Z,973.02
2019-06-10T07:06:59.938Z,973.00
2019-06-10T07:08:01.800Z,972.99
2019-06-10T07:09:04.660Z,972.94
2019-06-10T07:09:59.919Z,972.92
2019-06-10T07:10:59.909Z,972.87
2019-06-10T07:12:02.366Z,972.89
2019-06-10T07:12:59.899Z,972.95
2019-06-10T07:13:59.890Z,972.91
2019-06-10T07:14:59.885Z,972.95
2019-06-10T07:16:02.717Z,972.92
2019-06-10T07:16:59.873Z,972.88
2019-06-10T07:18:02.288Z,972.83
2019-06-10T07:18:59.859Z,972.85
2019-06-10T07:19:59.850Z,972.81
2019-06-10T07:20:59.845Z,972.82
2019-06-10T07:22:09.668Z,972.83
2019-06-10T07:22:59.830Z,972.78
2019-06-10T07:23:59.825Z,972.76
2019-06-10T07:25:04.150Z,972.66
2019-06-10T07:26:02.100Z,972.66
2019-06-10T07:26:59.807Z,972.60
2019-06-10T07:28:01.923Z,972.48
2019-06-10T07:28:59.790Z,972.37
2019-06-10T07:29:59.790Z,972.27
2019-06-10T07:30:59.782Z,972.25
2019-06-10T07:31:59.771Z,972.21
2019-06-10T07:32:59.772Z,972.19
2019-06-10T07:33:59.759Z,972.13
2019-06-10T07:34:59.752Z,972.16
2019-06-10T07:35:59.748Z,972.11
2019-06-10T07:36:59.741Z,972.08
2019-06-10T07:37:59.735Z,972.09
2019-06-10T07:38:59.730Z,972.13
2019-06-10T07:39:59.724Z,972.14
2019-06-10T07:41:02.384Z,972.10
2019-06-10T07:41:59.712Z,972.04
2019-06-10T07:42:59.704Z,972.04
2019-06-10T07:43:59.700Z,971.94
2019-06-10T07:44:59.693Z,971.91
2019-06-10T07:45:59.686Z,971.89
2019-06-10T07:46:59.679Z,971.85
2019-06-10T07:47:59.675Z,971.90
2019-06-10T07:49:03.101Z,971.86
2019-06-10T07:49:59.663Z,971.84
2019-06-10T07:51:02.591Z,971.81
2019-06-10T07:52:15.019Z,971.74
2019-06-10T07:52:59.647Z,971.65
2019-06-10T07:53:59.647Z,971.62
2019-06-10T07:54:59.635Z,971.58
2019-06-10T07:55:59.631Z,971.49
2019-06-10T07:56:59.623Z,971.39
2019-06-10T07:57:59.619Z,971.28
2019-06-10T07:58:59.617Z,971.25
2019-06-10T07:59:59.611Z,971.22
2019-06-10T08:01:02.435Z,971.21
2019-06-10T08:01:59.600Z,971.15
2019-06-10T08:02:59.593Z,971.09
2019-06-10T08:03:59.588Z,971.10
2019-06-10T08:04:59.581Z,971.04
2019-06-10T08:05:59.578Z,971.01
2019-06-10T08:06:59.570Z,970.89
2019-06-10T08:07:59.570Z,970.85
2019-06-10T08:09:01.796Z,970.81
2019-06-10T08:09:59.556Z,970.80
2019-06-10T08:10:59.554Z,970.74
2019-06-10T08:12:03.373Z,970.69
2019-06-10T08:12:59.548Z,970.65
2019-06-10T08:13:59.541Z,970.63
2019-06-10T08:15:02.519Z,970.64
2019-06-10T08:15:59.531Z,970.58
2019-06-10T08:16:59.532Z,970.61
2019-06-10T08:17:59.549Z,970.63
2019-06-10T08:19:24.641Z,970.63
2019-06-10T08:20:02.330Z,970.65
2019-06-10T08:20:59.512Z,970.66
2019-06-10T08:21:59.507Z,970.67
2019-06-10T08:23:02.098Z,970.68
2019-06-10T08:23:59.499Z,970.74
2019-06-10T08:24:59.496Z,970.75
2019-06-10T08:25:59.489Z,970.74
2019-06-10T08:26:59.485Z,970.76
2019-06-10T08:27:59.482Z,970.80
2019-06-10T08:28:59.482Z,970.79
2019-06-10T08:30:15.537Z,970.83
2019-06-10T08:30:59.478Z,970.79
2019-06-10T08:31:59.467Z,970.80
2019-06-10T08:32:59.463Z,970.78
2019-06-10T08:33:59.458Z,970.76
2019-06-10T08:34:59.457Z,970.79
2019-06-10T08:36:00.707Z,970.83
2019-06-10T08:36:59.451Z,970.88
2019-06-10T08:37:59.446Z,970.89
2019-06-10T08:38:59.442Z,970.89
2019-06-10T08:39:59.440Z,970.90
2019-06-10T08:40:59.440Z,970.88
2019-06-10T08:41:59.433Z,970.91
2019-06-10T08:42:59.429Z,970.86
2019-06-10T08:43:59.425Z,970.85
2019-06-10T08:45:00.127Z,970.89
2019-06-10T08:45:59.419Z,970.81
2019-06-10T08:46:59.415Z,970.80
2019-06-10T08:47:59.413Z,970.77
2019-06-10T08:48:59.412Z,970.78
2019-06-10T08:49:59.405Z,970.71
2019-06-10T08:50:59.400Z,970.69
2019-06-10T08:51:59.397Z,970.66
2019-06-10T08:53:10.378Z,970.64
2019-06-10T08:53:59.398Z,970.60
2019-06-10T08:54:59.388Z,970.57
2019-06-10T08:55:59.384Z,970.53
2019-06-10T08:56:59.380Z,970.47
2019-06-10T08:57:59.377Z,970.50
2019-06-10T08:58:59.375Z,970.48
2019-06-10T08:59:59.373Z,970.52
2019-06-10T09:00:59.373Z,970.48
2019-06-10T09:01:59.365Z,970.53
2019-06-10T09:02:59.362Z,970.51
2019-06-10T09:03:59.359Z,970.49
2019-06-10T09:04:59.358Z,970.42
2019-06-10T09:05:59.353Z,970.43
2019-06-10T09:06:59.352Z,970.48
2019-06-10T09:07:59.349Z,970.51
2019-06-10T09:08:59.350Z,970.53
2019-06-10T09:09:59.344Z,970.54
2019-06-10T09:10:59.338Z,970.55
2019-06-10T09:11:59.336Z,970.57
2019-06-10T09:12:59.332Z,970.58
2019-06-10T09:13:59.331Z,970.57
2019-06-10T09:14:59.329Z,970.60
2019-06-10T09:16:10.822Z,970.55
2019-06-10T09:16:59.325Z,970.54
2019-06-10T09:17:59.322Z,970.54
2019-06-10T09:18:59.321Z,970.56
2019-06-10T09:19:59.311Z,970.50
2019-06-10T09:20:59.310Z,970.49
2019-06-10T09:21:59.307Z,970.50
2019-06-10T09:23:16.939Z,970.52
2019-06-10T09:24:01.251Z,970.45
2019-06-10T09:24:59.298Z,970.45
2019-06-10T09:25:59.324Z,970.42
2019-06-10T09:26:59.293Z,970.41
2019-06-10T09:27:59.292Z,970.40
2019-06-10T09:28:59.290Z,970.37
2019-06-10T09:29:59.286Z,970.36
2019-06-10T09:30:59.937Z,970.28
2019-06-10T09:31:59.283Z,970.21
2019-06-10T09:33:01.563Z,970.18
2019-06-10T09:33:59.275Z,970.15
2019-06-10T09:34:59.273Z,970.11
2019-06-10T09:35:59.270Z,970.13
2019-06-10T09:36:59.266Z,970.05
2019-06-10T09:37:59.646Z,970.04
2019-06-10T09:38:59.260Z,969.94
2019-06-10T09:39:59.933Z,969.94
2019-06-10T09:41:04.898Z,969.90
2019-06-10T09:42:02.635Z,969.97
2019-06-10T09:42:59.258Z,969.93
2019-06-10T09:43:59.250Z,969.95
2019-06-10T09:44:59.246Z,969.95
2019-06-10T09:45:59.247Z,969.95
2019-06-10T09:47:00.333Z,969.93
2019-06-10T09:48:01.138Z,969.90
2019-06-10T09:48:59.298Z,969.91
2019-06-10T09:49:59.239Z,969.90
2019-06-10T09:50:59.476Z,969.92
2019-06-10T09:51:59.225Z,969.93
2019-06-10T09:52:59.225Z,969.95
2019-06-10T09:54:03.112Z,970.00
2019-06-10T09:54:59.220Z,969.96
2019-06-10T09:55:59.217Z,969.97
2019-06-10T09:56:59.217Z,969.90
2019-06-10T09:58:00.056Z,969.91
2019-06-10T09:58:59.209Z,969.91
2019-06-10T09:59:59.205Z,969.95
2019-06-10T10:00:59.204Z,970.00
2019-06-10T10:02:02.883Z,969.97
2019-06-10T10:02:59.199Z,969.96
2019-06-10T10:04:00.408Z,969.95
2019-06-10T10:04:59.188Z,969.95
2019-06-10T10:06:09.795Z,969.97
2019-06-10T10:06:59.185Z,970.01
2019-06-10T10:07:59.180Z,970.03
2019-06-10T10:08:59.179Z,970.07
2019-06-10T10:09:59.174Z,970.03
2019-06-10T10:10:59.432Z,970.00
2019-06-10T10:11:59.168Z,970.04
2019-06-10T10:12:59.164Z,970.00
2019-06-10T10:13:59.158Z,970.01
2019-06-10T10:15:16.334Z,969.97
2019-06-10T10:15:59.151Z,969.95
2019-06-10T10:17:00.555Z,969.90
2019-06-10T10:17:59.144Z,969.93
2019-06-10T10:19:00.652Z,969.88
2019-06-10T10:19:59.137Z,969.89
2019-06-10T10:21:00.460Z,969.91
2019-06-10T10:21:59.218Z,969.91
2019-06-10T10:22:59.125Z,969.88
2019-06-10T10:24:06.855Z,969.83
2019-06-10T10:24:59.118Z,969.79
2019-06-10T10:25:59.111Z,969.77
2019-06-10T10:27:01.895Z,969.72
2019-06-10T10:27:59.105Z,969.70
2019-06-10T10:28:59.106Z,969.68
2019-06-10T10:29:59.098Z,969.67
2019-06-10T10:30:59.093Z,969.62
2019-06-10T10:31:59.091Z,969.59
2019-06-10T10:32:59.088Z,969.62
2019-06-10T10:33:59.081Z,969.61
2019-06-10T10:34:59.080Z,969.65
2019-06-10T10:35:59.072Z,969.66
2019-06-10T10:36:59.074Z,969.68
2019-06-10T10:37:59.064Z,969.67
2019-06-10T10:38:59.059Z,969.68
2019-06-10T10:39:59.062Z,969.64
2019-06-10T10:40:59.394Z,969.65
2019-06-10T10:41:59.055Z,969.62
2019-06-10T10:43:20.024Z,969.54
2019-06-10T10:43:59.044Z,969.54
2019-06-10T10:44:59.403Z,969.51
2019-06-10T10:46:00.435Z,969.55
2019-06-10T10:46:59.028Z,969.59
2019-06-10T10:47:59.029Z,969.62
2019-06-10T10:48:59.023Z,969.64
2019-06-10T10:49:59.019Z,969.68
2019-06-10T10:50:59.013Z,969.65
2019-06-10T10:51:59.010Z,969.68
2019-06-10T10:52:59.008Z,969.68
2019-06-10T10:54:28.689Z,969.73
2019-06-10T10:54:58.995Z,969.72
2019-06-10T10:55:58.995Z,969.64
2019-06-10T10:56:59.418Z,969.51
2019-06-10T10:57:58.988Z,969.48
2019-06-10T10:58:58.985Z,969.36
2019-06-10T10:59:58.982Z,969.30
2019-06-10T11:00:58.978Z,969.23
2019-06-10T11:01:58.970Z,969.25
2019-06-10T11:02:58.970Z,969.28
2019-06-10T11:03:59.430Z,969.26
2019-06-10T11:04:58.967Z,969.36
2019-06-10T11:06:01.086Z,969.35
2019-06-10T11:07:01.039Z,969.43
2019-06-10T11:07:58.949Z,969.45
2019-06-10T11:08:58.946Z,969.47
2019-06-10T11:09:58.942Z,969.45
2019-06-10T11:11:01.118Z,969.41
2019-06-10T11:11:58.939Z,969.38
2019-06-10T11:12:58.934Z,969.43
2019-06-10T11:13:58.929Z,969.49
2019-06-10T11:15:01.929Z,969.58
2019-06-10T11:15:58.938Z,969.62
2019-06-10T11:16:59.153Z,969.66
2019-06-10T11:17:58.927Z,969.71
2019-06-10T11:18:58.911Z,969.72
2019-06-10T11:19:58.909Z,969.74
2019-06-10T11:21:01.707Z,969.76
2019-06-10T11:21:58.903Z,969.85
2019-06-10T11:22:58.899Z,969.87
2019-06-10T11:24:01.415Z,969.87
2019-06-10T11:24:58.945Z,969.87
2019-06-10T11:25:59.062Z,969.86
2019-06-10T11:26:58.894Z,969.90
2019-06-10T11:27:58.879Z,969.89
2019-06-10T11:28:58.877Z,969.90
2019-06-10T11:29:59.201Z,969.93
2019-06-10T11:30:58.867Z,970.00
2019-06-10T11:31:58.996Z,970.03
2019-06-10T11:32:59.670Z,970.12
2019-06-10T11:33:59.289Z,970.15
2019-06-10T11:34:58.858Z,970.24
2019-06-10T11:35:59.362Z,970.29
2019-06-10T11:36:58.848Z,970.32
2019-06-10T11:37:58.839Z,970.45
2019-06-10T11:38:59.260Z,970.48
2019-06-10T11:39:58.838Z,970.58
2019-06-10T11:41:00.129Z,970.61
2019-06-10T11:41:58.824Z,970.65
2019-06-10T11:42:59.804Z,970.64
2019-06-10T11:43:59.413Z,970.60
2019-06-10T11:44:59.938Z,970.54
2019-06-10T11:46:03.536Z,970.48
2019-06-10T11:46:59.726Z,970.47
2019-06-10T11:47:58.799Z,970.44
2019-06-10T11:48:59.135Z,970.45
2019-06-10T11:49:58.791Z,970.45
2019-06-10T11:51:00.856Z,970.43
2019-06-10T11:51:59.688Z,970.44
2019-06-10T11:53:00.783Z,970.42
2019-06-10T11:53:58.991Z,970.36
2019-06-10T11:55:11.913Z,970.39
2019-06-10T11:55:58.762Z,970.42
2019-06-10T11:56:59.934Z,970.41
2019-06-10T11:57:59.347Z,970.47
2019-06-10T11:59:00.542Z,970.49
2019-06-10T11:59:59.505Z,970.47
2019-06-10T12:01:00.492Z,970.40
2019-06-10T12:02:01.659Z,970.33
2019-06-10T12:03:00.127Z,970.23
2019-06-10T12:04:00.448Z,970.16
2019-06-10T12:05:00.608Z,970.10
2019-06-10T12:06:01.089Z,969.99
2019-06-10T12:06:59.054Z,969.94
2019-06-10T12:08:01.667Z,969.86
2019-06-10T12:09:02.872Z,969.81
2019-06-10T12:10:00.829Z,969.79
2019-06-10T12:11:02.172Z,969.70
2019-06-10T12:12:02.079Z,969.65
2019-06-10T12:13:03.057Z,969.56
2019-06-10T12:14:04.189Z,969.50
2019-06-10T12:15:01.284Z,969.44
2019-06-10T12:17:11.282Z,969.41
2019-06-10T12:17:21.820Z,969.39
2019-06-10T12:18:05.285Z,969.43
2019-06-10T12:19:00.100Z,969.39
2019-06-10T12:20:02.609Z,969.38
2019-06-10T12:21:00.361Z,969.41
2019-06-10T12:22:02.419Z,969.44
2019-06-10T12:23:00.319Z,969.40
2019-06-10T12:24:01.236Z,969.39
2019-06-10T12:25:25.101Z,969.33
2019-06-10T12:25:59.761Z,969.27
2019-06-10T12:27:00.247Z,969.08
2019-06-10T12:28:01.853Z,968.92